Hauptseite
METAR-TAF:

METAR-TAF

Flughäfen :

Flughafen Waterford

Waterford, Irland

Breite: 52-11-14N, Länge: 7-05-13W, Höhe: 36 m

Beobachtung

Neuester Wetterbericht von vor 46 Minuten, um 21:00 UTC
Wind 6 kt aus Nord/Nordost
Temperatur 13°C
Luftfeuchtigkeit 67%
Luftdruck 1021 hPa
Sichtweite 10 km oder mehr
Durchbrochene Bewölkung in der Höhe von 4100 ft

METAR: EIWF 182100Z 02006KT 9999 BKN041 13/07 Q1021

Zeit: 22:46 (21:46 UTC)

Prognose

Neuester Wetterbericht von vor 1 Stunde und 46 Minuten, um 20:00 UTC
Gültige Prognose vom 18 um 21 UTC bis 19 um 06 UTC
Wind 7 kt aus Nord
Sichtweite 10 km oder mehr
Durchbrochene Bewölkung in der Höhe von 4500 ft

TAF: EIWF 182000Z 1821/1906 36007KT 9999 BKN045

Wetterbeobachtungen und Prognosen von mehr als 4000 Flughäfen (METAR und TAF Bericht).

Die verfügbaren Stationen werden durch gelbe und rote Markierungen auf der Karte dargestellt.

Führen Sie die Maus auf sie, um den Namen der Station zu sehen.

Darauf klicken, um die Beobachtung von Wetterbeobachtungen und Prognosen zu sehen.

Um die Karte zu ändern : klicken Sie auf den grünen Tasten mit einem schwarzen Kreuz Zum Vergrößern, auf den grünen Button mit einem Gedankenstrich zu verkleinern, oder auf die grünen Pfeile für benachbarte Karten.


METAR-TAF: